sensor_id;sensor_type;location;lat;lon;timestamp;P1;durP1;ratioP1;P2;durP2;ratioP2
63398;SDS011;49533;-34.520;150.798;2022-08-03T00:02:10;1.02;;;0.90;;
63398;SDS011;49533;-34.520;150.798;2022-08-03T00:04:37;0.70;;;0.70;;
63398;SDS011;49533;-34.520;150.798;2022-08-03T00:07:04;0.88;;;0.82;;
63398;SDS011;49533;-34.520;150.798;2022-08-03T00:09:31;7.97;;;0.80;;
63398;SDS011;49533;-34.520;150.798;2022-08-03T00:11:58;2.58;;;1.27;;
63398;SDS011;49533;-34.520;150.798;2022-08-03T00:14:25;0.73;;;0.70;;
63398;SDS011;49533;-34.520;150.798;2022-08-03T00:16:52;0.65;;;0.65;;
63398;SDS011;49533;-34.520;150.798;2022-08-03T00:19:19;12.00;;;1.20;;
63398;SDS011;49533;-34.520;150.798;2022-08-03T00:21:46;10.23;;;1.10;;
63398;SDS011;49533;-34.520;150.798;2022-08-03T00:24:13;2.92;;;1.02;;
63398;SDS011;49533;-34.520;150.798;2022-08-03T00:26:40;1.00;;;0.77;;
63398;SDS011;49533;-34.520;150.798;2022-08-03T00:29:07;1.45;;;0.70;;
63398;SDS011;49533;-34.520;150.798;2022-08-03T00:31:34;0.70;;;0.60;;
63398;SDS011;49533;-34.520;150.798;2022-08-03T00:34:01;3.05;;;0.80;;
63398;SDS011;49533;-34.520;150.798;2022-08-03T00:36:28;1.45;;;0.70;;
63398;SDS011;49533;-34.520;150.798;2022-08-03T00:38:55;0.95;;;0.70;;
63398;SDS011;49533;-34.520;150.798;2022-08-03T00:41:22;0.63;;;0.63;;
63398;SDS011;49533;-34.520;150.798;2022-08-03T00:43:49;0.73;;;0.73;;
63398;SDS011;49533;-34.520;150.798;2022-08-03T00:46:16;2.83;;;1.15;;
63398;SDS011;49533;-34.520;150.798;2022-08-03T00:48:47;0.57;;;0.52;;
63398;SDS011;49533;-34.520;150.798;2022-08-03T00:51:15;1.83;;;0.82;;
63398;SDS011;49533;-34.520;150.798;2022-08-03T00:53:43;0.52;;;0.52;;
63398;SDS011;49533;-34.520;150.798;2022-08-03T00:56:16;0.98;;;0.70;;
63398;SDS011;49533;-34.520;150.798;2022-08-03T00:58:44;1.88;;;0.75;;
63398;SDS011;49533;-34.520;150.798;2022-08-03T01:01:12;0.82;;;0.55;;
63398;SDS011;49533;-34.520;150.798;2022-08-03T01:03:39;0.68;;;0.60;;
63398;SDS011;49533;-34.520;150.798;2022-08-03T01:06:16;0.80;;;0.70;;
63398;SDS011;49533;-34.520;150.798;2022-08-03T01:11:23;2.63;;;0.85;;
63398;SDS011;49533;-34.520;150.798;2022-08-03T01:14:05;1.30;;;0.90;;
63398;SDS011;49533;-34.520;150.798;2022-08-03T01:17:28;1.40;;;0.60;;
63398;SDS011;49533;-34.520;150.798;2022-08-03T01:20:02;0.50;;;0.50;;
63398;SDS011;49533;-34.520;150.798;2022-08-03T01:25:27;1.75;;;0.82;;
63398;SDS011;49533;-34.520;150.798;2022-08-03T01:30:51;1.25;;;0.77;;
63398;SDS011;49533;-34.520;150.798;2022-08-03T01:33:23;2.97;;;1.27;;
63398;SDS011;49533;-34.520;150.798;2022-08-03T01:35:58;2.10;;;0.73;;
63398;SDS011;49533;-34.520;150.798;2022-08-03T01:38:31;0.52;;;0.50;;
63398;SDS011;49533;-34.520;150.798;2022-08-03T01:41:12;1.92;;;0.57;;
63398;SDS011;49533;-34.520;150.798;2022-08-03T01:43:44;1.10;;;0.82;;
63398;SDS011;49533;-34.520;150.798;2022-08-03T01:46:14;0.85;;;0.65;;
63398;SDS011;49533;-34.520;150.798;2022-08-03T01:48:45;0.43;;;0.43;;
63398;SDS011;49533;-34.520;150.798;2022-08-03T01:51:14;1.85;;;0.70;;
63398;SDS011;49533;-34.520;150.798;2022-08-03T01:53:44;1.48;;;0.90;;
63398;SDS011;49533;-34.520;150.798;2022-08-03T01:56:14;1.73;;;0.73;;
63398;SDS011;49533;-34.520;150.798;2022-08-03T01:58:44;0.68;;;0.68;;
63398;SDS011;49533;-34.520;150.798;2022-08-03T02:01:14;0.57;;;0.52;;
63398;SDS011;49533;-34.520;150.798;2022-08-03T02:03:43;0.77;;;0.68;;
63398;SDS011;49533;-34.520;150.798;2022-08-03T02:06:11;3.28;;;0.85;;
63398;SDS011;49533;-34.520;150.798;2022-08-03T02:08:40;0.70;;;0.60;;
63398;SDS011;49533;-34.520;150.798;2022-08-03T02:11:11;1.42;;;0.63;;
63398;SDS011;49533;-34.520;150.798;2022-08-03T02:13:38;0.98;;;0.70;;
63398;SDS011;49533;-34.520;150.798;2022-08-03T02:16:06;1.17;;;0.73;;
63398;SDS011;49533;-34.520;150.798;2022-08-03T02:18:35;0.70;;;0.70;;
63398;SDS011;49533;-34.520;150.798;2022-08-03T02:21:04;2.47;;;0.70;;
63398;SDS011;49533;-34.520;150.798;2022-08-03T02:23:35;0.80;;;0.52;;
63398;SDS011;49533;-34.520;150.798;2022-08-03T02:26:03;0.90;;;0.90;;
63398;SDS011;49533;-34.520;150.798;2022-08-03T02:28:35;1.30;;;0.70;;
63398;SDS011;49533;-34.520;150.798;2022-08-03T02:31:10;1.05;;;0.77;;
63398;SDS011;49533;-34.520;150.798;2022-08-03T02:33:53;1.13;;;0.70;;
63398;SDS011;49533;-34.520;150.798;2022-08-03T02:36:24;0.80;;;0.80;;
63398;SDS011;49533;-34.520;150.798;2022-08-03T02:38:54;0.80;;;0.80;;
63398;SDS011;49533;-34.520;150.798;2022-08-03T02:41:30;0.77;;;0.68;;
63398;SDS011;49533;-34.520;150.798;2022-08-03T02:44:12;1.30;;;0.77;;
63398;SDS011;49533;-34.520;150.798;2022-08-03T02:46:43;1.17;;;0.80;;
63398;SDS011;49533;-34.520;150.798;2022-08-03T02:49:13;1.70;;;0.88;;
63398;SDS011;49533;-34.520;150.798;2022-08-03T02:51:43;0.55;;;0.55;;
63398;SDS011;49533;-34.520;150.798;2022-08-03T02:54:13;0.77;;;0.50;;
63398;SDS011;49533;-34.520;150.798;2022-08-03T02:56:43;0.85;;;0.50;;
63398;SDS011;49533;-34.520;150.798;2022-08-03T02:59:12;1.75;;;0.68;;
63398;SDS011;49533;-34.520;150.798;2022-08-03T03:01:39;0.88;;;0.80;;
63398;SDS011;49533;-34.520;150.798;2022-08-03T03:04:07;5.57;;;0.80;;
63398;SDS011;49533;-34.520;150.798;2022-08-03T03:06:37;1.88;;;0.60;;
63398;SDS011;49533;-34.520;150.798;2022-08-03T03:09:05;1.83;;;0.60;;
63398;SDS011;49533;-34.520;150.798;2022-08-03T03:11:33;1.00;;;0.47;;
63398;SDS011;49533;-34.520;150.798;2022-08-03T03:14:03;1.20;;;0.70;;
63398;SDS011;49533;-34.520;150.798;2022-08-03T03:16:33;0.85;;;0.63;;
63398;SDS011;49533;-34.520;150.798;2022-08-03T03:19:01;2.95;;;0.80;;
63398;SDS011;49533;-34.520;150.798;2022-08-03T03:21:28;3.15;;;1.13;;
63398;SDS011;49533;-34.520;150.798;2022-08-03T03:23:57;0.52;;;0.50;;
63398;SDS011;49533;-34.520;150.798;2022-08-03T03:26:25;2.80;;;0.50;;
63398;SDS011;49533;-34.520;150.798;2022-08-03T03:28:53;0.98;;;0.68;;
63398;SDS011;49533;-34.520;150.798;2022-08-03T03:31:20;0.60;;;0.60;;
63398;SDS011;49533;-34.520;150.798;2022-08-03T03:33:47;1.02;;;0.77;;
63398;SDS011;49533;-34.520;150.798;2022-08-03T03:36:15;2.10;;;1.10;;
63398;SDS011;49533;-34.520;150.798;2022-08-03T03:38:42;1.45;;;0.88;;
63398;SDS011;49533;-34.520;150.798;2022-08-03T03:41:10;1.42;;;0.93;;
63398;SDS011;49533;-34.520;150.798;2022-08-03T03:43:37;1.08;;;0.98;;
63398;SDS011;49533;-34.520;150.798;2022-08-03T03:46:04;1.20;;;0.88;;
63398;SDS011;49533;-34.520;150.798;2022-08-03T03:48:32;0.95;;;0.73;;
63398;SDS011;49533;-34.520;150.798;2022-08-03T03:50:59;0.93;;;0.90;;
63398;SDS011;49533;-34.520;150.798;2022-08-03T03:53:27;2.60;;;1.00;;
63398;SDS011;49533;-34.520;150.798;2022-08-03T03:55:54;2.70;;;1.02;;
63398;SDS011;49533;-34.520;150.798;2022-08-03T03:58:21;3.35;;;0.70;;
63398;SDS011;49533;-34.520;150.798;2022-08-03T04:00:48;1.38;;;0.70;;
63398;SDS011;49533;-34.520;150.798;2022-08-03T04:03:15;2.80;;;0.80;;
63398;SDS011;49533;-34.520;150.798;2022-08-03T04:05:42;0.82;;;0.63;;
63398;SDS011;49533;-34.520;150.798;2022-08-03T04:08:27;1.95;;;0.80;;
63398;SDS011;49533;-34.520;150.798;2022-08-03T04:13:43;0.95;;;0.70;;
63398;SDS011;49533;-34.520;150.798;2022-08-03T04:18:46;1.75;;;0.80;;
63398;SDS011;49533;-34.520;150.798;2022-08-03T04:21:19;3.08;;;0.95;;
63398;SDS011;49533;-34.520;150.798;2022-08-03T04:23:49;2.75;;;0.75;;
63398;SDS011;49533;-34.520;150.798;2022-08-03T04:26:20;2.33;;;0.82;;
63398;SDS011;49533;-34.520;150.798;2022-08-03T04:28:50;1.58;;;0.85;;
63398;SDS011;49533;-34.520;150.798;2022-08-03T04:31:20;1.70;;;0.80;;
63398;SDS011;49533;-34.520;150.798;2022-08-03T04:33:49;2.45;;;1.30;;
63398;SDS011;49533;-34.520;150.798;2022-08-03T04:36:22;1.27;;;0.68;;
63398;SDS011;49533;-34.520;150.798;2022-08-03T04:41:33;0.98;;;0.60;;
63398;SDS011;49533;-34.520;150.798;2022-08-03T04:44:01;0.90;;;0.80;;
63398;SDS011;49533;-34.520;150.798;2022-08-03T04:46:31;1.55;;;0.60;;
63398;SDS011;49533;-34.520;150.798;2022-08-03T04:49:02;1.30;;;0.88;;
63398;SDS011;49533;-34.520;150.798;2022-08-03T04:51:30;1.45;;;0.70;;
63398;SDS011;49533;-34.520;150.798;2022-08-03T04:54:03;1.13;;;0.70;;
63398;SDS011;49533;-34.520;150.798;2022-08-03T04:56:32;1.10;;;0.57;;
63398;SDS011;49533;-34.520;150.798;2022-08-03T04:58:59;1.30;;;0.80;;
63398;SDS011;49533;-34.520;150.798;2022-08-03T05:01:27;0.73;;;0.50;;
63398;SDS011;49533;-34.520;150.798;2022-08-03T05:03:54;2.42;;;0.95;;
63398;SDS011;49533;-34.520;150.798;2022-08-03T05:06:21;1.55;;;0.82;;
63398;SDS011;49533;-34.520;150.798;2022-08-03T05:08:49;4.43;;;0.65;;
63398;SDS011;49533;-34.520;150.798;2022-08-03T05:11:16;1.35;;;0.90;;
63398;SDS011;49533;-34.520;150.798;2022-08-03T05:13:43;0.77;;;0.70;;
63398;SDS011;49533;-34.520;150.798;2022-08-03T05:16:10;1.67;;;0.70;;
63398;SDS011;49533;-34.520;150.798;2022-08-03T05:18:38;0.70;;;0.60;;
63398;SDS011;49533;-34.520;150.798;2022-08-03T05:21:09;0.98;;;0.82;;
63398;SDS011;49533;-34.520;150.798;2022-08-03T05:23:38;1.05;;;0.63;;
63398;SDS011;49533;-34.520;150.798;2022-08-03T05:26:06;2.50;;;1.08;;
63398;SDS011;49533;-34.520;150.798;2022-08-03T05:28:33;1.75;;;0.95;;
63398;SDS011;49533;-34.520;150.798;2022-08-03T05:31:00;2.95;;;0.70;;
63398;SDS011;49533;-34.520;150.798;2022-08-03T05:33:27;2.25;;;1.00;;
63398;SDS011;49533;-34.520;150.798;2022-08-03T05:35:54;0.50;;;0.50;;
63398;SDS011;49533;-34.520;150.798;2022-08-03T05:38:21;1.30;;;0.70;;
63398;SDS011;49533;-34.520;150.798;2022-08-03T05:40:49;0.63;;;0.57;;
63398;SDS011;49533;-34.520;150.798;2022-08-03T05:43:16;3.05;;;1.15;;
63398;SDS011;49533;-34.520;150.798;2022-08-03T05:45:43;2.00;;;0.80;;
63398;SDS011;49533;-34.520;150.798;2022-08-03T05:48:10;2.40;;;1.00;;
63398;SDS011;49533;-34.520;150.798;2022-08-03T05:50:37;1.02;;;0.57;;
63398;SDS011;49533;-34.520;150.798;2022-08-03T05:53:04;0.70;;;0.70;;
63398;SDS011;49533;-34.520;150.798;2022-08-03T05:55:31;2.40;;;0.80;;
63398;SDS011;49533;-34.520;150.798;2022-08-03T05:57:58;0.85;;;0.70;;
63398;SDS011;49533;-34.520;150.798;2022-08-03T06:00:27;0.60;;;0.60;;
63398;SDS011;49533;-34.520;150.798;2022-08-03T06:02:54;2.33;;;0.60;;
63398;SDS011;49533;-34.520;150.798;2022-08-03T06:05:22;2.28;;;0.85;;
63398;SDS011;49533;-34.520;150.798;2022-08-03T06:07:51;1.42;;;1.30;;
63398;SDS011;49533;-34.520;150.798;2022-08-03T06:10:19;0.52;;;0.50;;
63398;SDS011;49533;-34.520;150.798;2022-08-03T06:12:46;1.60;;;1.10;;
63398;SDS011;49533;-34.520;150.798;2022-08-03T06:15:14;0.82;;;0.80;;
63398;SDS011;49533;-34.520;150.798;2022-08-03T06:17:43;0.60;;;0.55;;
63398;SDS011;49533;-34.520;150.798;2022-08-03T06:20:11;0.63;;;0.63;;
63398;SDS011;49533;-34.520;150.798;2022-08-03T06:22:39;0.93;;;0.70;;
63398;SDS011;49533;-34.520;150.798;2022-08-03T06:25:06;1.77;;;0.60;;
63398;SDS011;49533;-34.520;150.798;2022-08-03T06:27:33;2.70;;;0.70;;
63398;SDS011;49533;-34.520;150.798;2022-08-03T06:30:05;5.78;;;0.90;;
63398;SDS011;49533;-34.520;150.798;2022-08-03T06:32:33;3.08;;;0.93;;
63398;SDS011;49533;-34.520;150.798;2022-08-03T06:35:00;2.90;;;0.70;;
63398;SDS011;49533;-34.520;150.798;2022-08-03T06:37:27;1.98;;;1.02;;
63398;SDS011;49533;-34.520;150.798;2022-08-03T06:39:54;1.33;;;0.75;;
63398;SDS011;49533;-34.520;150.798;2022-08-03T06:42:21;2.70;;;0.80;;
63398;SDS011;49533;-34.520;150.798;2022-08-03T06:44:49;1.25;;;1.00;;
63398;SDS011;49533;-34.520;150.798;2022-08-03T06:47:16;1.13;;;0.90;;
63398;SDS011;49533;-34.520;150.798;2022-08-03T06:49:43;4.85;;;1.38;;
63398;SDS011;49533;-34.520;150.798;2022-08-03T06:52:10;3.25;;;1.55;;
63398;SDS011;49533;-34.520;150.798;2022-08-03T06:54:37;3.38;;;1.38;;
63398;SDS011;49533;-34.520;150.798;2022-08-03T06:57:04;3.42;;;1.58;;
63398;SDS011;49533;-34.520;150.798;2022-08-03T06:59:32;2.78;;;1.45;;
63398;SDS011;49533;-34.520;150.798;2022-08-03T07:01:59;5.05;;;1.33;;
63398;SDS011;49533;-34.520;150.798;2022-08-03T07:04:26;3.47;;;1.52;;
63398;SDS011;49533;-34.520;150.798;2022-08-03T07:06:53;4.78;;;1.50;;
63398;SDS011;49533;-34.520;150.798;2022-08-03T07:09:20;3.65;;;1.65;;
63398;SDS011;49533;-34.520;150.798;2022-08-03T07:11:47;5.72;;;1.23;;
63398;SDS011;49533;-34.520;150.798;2022-08-03T07:14:14;2.72;;;1.70;;
63398;SDS011;49533;-34.520;150.798;2022-08-03T07:16:41;3.58;;;1.60;;
63398;SDS011;49533;-34.520;150.798;2022-08-03T07:19:08;3.75;;;1.27;;
63398;SDS011;49533;-34.520;150.798;2022-08-03T07:21:36;2.38;;;1.17;;
63398;SDS011;49533;-34.520;150.798;2022-08-03T07:24:04;1.70;;;1.27;;
63398;SDS011;49533;-34.520;150.798;2022-08-03T07:26:31;2.35;;;1.70;;
63398;SDS011;49533;-34.520;150.798;2022-08-03T07:28:58;5.40;;;1.55;;
63398;SDS011;49533;-34.520;150.798;2022-08-03T07:31:26;3.67;;;1.90;;
63398;SDS011;49533;-34.520;150.798;2022-08-03T07:33:53;2.67;;;1.95;;
63398;SDS011;49533;-34.520;150.798;2022-08-03T07:36:20;4.05;;;2.35;;
63398;SDS011;49533;-34.520;150.798;2022-08-03T07:38:49;4.03;;;2.20;;
63398;SDS011;49533;-34.520;150.798;2022-08-03T07:41:16;2.30;;;1.85;;
63398;SDS011;49533;-34.520;150.798;2022-08-03T07:43:43;6.90;;;2.45;;
63398;SDS011;49533;-34.520;150.798;2022-08-03T07:46:10;4.68;;;2.60;;
63398;SDS011;49533;-34.520;150.798;2022-08-03T07:48:37;3.00;;;2.38;;
63398;SDS011;49533;-34.520;150.798;2022-08-03T07:51:04;2.20;;;1.80;;
63398;SDS011;49533;-34.520;150.798;2022-08-03T07:53:31;4.63;;;2.50;;
63398;SDS011;49533;-34.520;150.798;2022-08-03T07:55:58;4.03;;;1.85;;
63398;SDS011;49533;-34.520;150.798;2022-08-03T07:58:25;4.53;;;2.20;;
63398;SDS011;49533;-34.520;150.798;2022-08-03T08:00:52;2.30;;;2.10;;
63398;SDS011;49533;-34.520;150.798;2022-08-03T08:03:19;3.58;;;1.92;;
63398;SDS011;49533;-34.520;150.798;2022-08-03T08:05:46;3.30;;;1.67;;
63398;SDS011;49533;-34.520;150.798;2022-08-03T08:08:14;2.47;;;1.75;;
63398;SDS011;49533;-34.520;150.798;2022-08-03T08:10:41;2.72;;;1.52;;
63398;SDS011;49533;-34.520;150.798;2022-08-03T08:13:08;4.40;;;1.85;;
63398;SDS011;49533;-34.520;150.798;2022-08-03T08:15:35;2.40;;;1.73;;
63398;SDS011;49533;-34.520;150.798;2022-08-03T08:18:02;2.63;;;1.38;;
63398;SDS011;49533;-34.520;150.798;2022-08-03T08:20:30;4.13;;;1.80;;
63398;SDS011;49533;-34.520;150.798;2022-08-03T08:23:00;5.35;;;1.67;;
63398;SDS011;49533;-34.520;150.798;2022-08-03T08:25:29;3.05;;;1.50;;
63398;SDS011;49533;-34.520;150.798;2022-08-03T08:27:57;4.93;;;1.92;;
63398;SDS011;49533;-34.520;150.798;2022-08-03T08:30:29;2.08;;;1.52;;
63398;SDS011;49533;-34.520;150.798;2022-08-03T08:32:57;4.63;;;1.58;;
63398;SDS011;49533;-34.520;150.798;2022-08-03T08:35:25;2.67;;;1.33;;
63398;SDS011;49533;-34.520;150.798;2022-08-03T08:37:52;7.05;;;1.40;;
63398;SDS011;49533;-34.520;150.798;2022-08-03T08:40:19;1.88;;;1.30;;
63398;SDS011;49533;-34.520;150.798;2022-08-03T08:42:47;2.03;;;1.55;;
63398;SDS011;49533;-34.520;150.798;2022-08-03T08:45:15;2.63;;;1.30;;
63398;SDS011;49533;-34.520;150.798;2022-08-03T08:47:44;2.65;;;1.35;;
63398;SDS011;49533;-34.520;150.798;2022-08-03T08:50:13;2.17;;;1.25;;
63398;SDS011;49533;-34.520;150.798;2022-08-03T08:52:45;5.30;;;1.48;;
63398;SDS011;49533;-34.520;150.798;2022-08-03T08:55:14;1.27;;;0.80;;
63398;SDS011;49533;-34.520;150.798;2022-08-03T08:57:47;1.60;;;1.17;;
63398;SDS011;49533;-34.520;150.798;2022-08-03T09:00:34;2.55;;;1.20;;
63398;SDS011;49533;-34.520;150.798;2022-08-03T09:03:01;3.15;;;1.40;;
63398;SDS011;49533;-34.520;150.798;2022-08-03T09:05:28;0.82;;;0.82;;
63398;SDS011;49533;-34.520;150.798;2022-08-03T09:07:57;0.75;;;0.75;;
63398;SDS011;49533;-34.520;150.798;2022-08-03T09:10:25;2.15;;;0.90;;
63398;SDS011;49533;-34.520;150.798;2022-08-03T09:12:52;1.92;;;0.98;;
63398;SDS011;49533;-34.520;150.798;2022-08-03T09:15:20;5.10;;;1.40;;
63398;SDS011;49533;-34.520;150.798;2022-08-03T09:17:50;2.05;;;1.40;;
63398;SDS011;49533;-34.520;150.798;2022-08-03T09:20:20;1.42;;;1.13;;
63398;SDS011;49533;-34.520;150.798;2022-08-03T09:22:55;1.95;;;0.70;;
63398;SDS011;49533;-34.520;150.798;2022-08-03T09:25:32;1.33;;;0.98;;
63398;SDS011;49533;-34.520;150.798;2022-08-03T09:28:09;1.20;;;1.08;;
63398;SDS011;49533;-34.520;150.798;2022-08-03T09:30:39;2.25;;;0.82;;
63398;SDS011;49533;-34.520;150.798;2022-08-03T09:33:08;0.90;;;0.90;;
63398;SDS011;49533;-34.520;150.798;2022-08-03T09:35:44;0.60;;;0.60;;
63398;SDS011;49533;-34.520;150.798;2022-08-03T09:38:15;0.98;;;0.90;;
63398;SDS011;49533;-34.520;150.798;2022-08-03T09:40:44;2.35;;;1.38;;
63398;SDS011;49533;-34.520;150.798;2022-08-03T09:43:11;1.80;;;1.10;;
63398;SDS011;49533;-34.520;150.798;2022-08-03T09:45:38;0.68;;;0.68;;
63398;SDS011;49533;-34.520;150.798;2022-08-03T09:48:22;2.25;;;0.95;;
63398;SDS011;49533;-34.520;150.798;2022-08-03T09:51:00;1.05;;;0.95;;
63398;SDS011;49533;-34.520;150.798;2022-08-03T09:53:28;0.80;;;0.80;;
63398;SDS011;49533;-34.520;150.798;2022-08-03T09:55:56;2.05;;;1.02;;
63398;SDS011;49533;-34.520;150.798;2022-08-03T09:58:25;1.77;;;0.98;;
63398;SDS011;49533;-34.520;150.798;2022-08-03T10:00:58;2.38;;;1.23;;
63398;SDS011;49533;-34.520;150.798;2022-08-03T10:03:30;1.65;;;0.90;;
63398;SDS011;49533;-34.520;150.798;2022-08-03T10:05:59;1.85;;;0.88;;
63398;SDS011;49533;-34.520;150.798;2022-08-03T10:11:33;0.87;;;0.83;;
63398;SDS011;49533;-34.520;150.798;2022-08-03T10:14:02;1.77;;;0.90;;
63398;SDS011;49533;-34.520;150.798;2022-08-03T10:16:35;1.15;;;0.90;;
63398;SDS011;49533;-34.520;150.798;2022-08-03T10:19:04;1.38;;;0.90;;
63398;SDS011;49533;-34.520;150.798;2022-08-03T10:21:34;1.08;;;0.80;;
63398;SDS011;49533;-34.520;150.798;2022-08-03T10:24:07;2.42;;;0.80;;
63398;SDS011;49533;-34.520;150.798;2022-08-03T10:26:38;1.80;;;1.02;;
63398;SDS011;49533;-34.520;150.798;2022-08-03T10:29:10;0.93;;;0.82;;
63398;SDS011;49533;-34.520;150.798;2022-08-03T10:31:40;1.67;;;1.00;;
63398;SDS011;49533;-34.520;150.798;2022-08-03T10:34:16;1.40;;;0.90;;
63398;SDS011;49533;-34.520;150.798;2022-08-03T10:36:48;0.93;;;0.93;;
63398;SDS011;49533;-34.520;150.798;2022-08-03T10:39:18;0.77;;;0.77;;
63398;SDS011;49533;-34.520;150.798;2022-08-03T10:41:49;1.77;;;0.93;;
63398;SDS011;49533;-34.520;150.798;2022-08-03T10:44:17;2.40;;;1.08;;
63398;SDS011;49533;-34.520;150.798;2022-08-03T10:46:46;1.00;;;0.90;;
63398;SDS011;49533;-34.520;150.798;2022-08-03T10:49:16;0.95;;;0.90;;
63398;SDS011;49533;-34.520;150.798;2022-08-03T10:51:44;1.25;;;1.10;;
63398;SDS011;49533;-34.520;150.798;2022-08-03T10:54:58;2.03;;;1.15;;
63398;SDS011;49533;-34.520;150.798;2022-08-03T11:00:07;1.30;;;1.20;;
63398;SDS011;49533;-34.520;150.798;2022-08-03T11:05:45;1.52;;;1.27;;
63398;SDS011;49533;-34.520;150.798;2022-08-03T11:10:48;2.05;;;1.05;;
63398;SDS011;49533;-34.520;150.798;2022-08-03T11:13:18;2.38;;;1.30;;
63398;SDS011;49533;-34.520;150.798;2022-08-03T11:15:47;0.90;;;0.90;;
63398;SDS011;49533;-34.520;150.798;2022-08-03T11:18:15;1.52;;;1.05;;
63398;SDS011;49533;-34.520;150.798;2022-08-03T11:20:46;1.63;;;1.27;;
63398;SDS011;49533;-34.520;150.798;2022-08-03T11:23:16;1.17;;;0.75;;
63398;SDS011;49533;-34.520;150.798;2022-08-03T11:26:14;1.27;;;1.00;;
63398;SDS011;49533;-34.520;150.798;2022-08-03T11:28:43;3.72;;;2.80;;
63398;SDS011;49533;-34.520;150.798;2022-08-03T11:31:44;1.33;;;1.20;;
63398;SDS011;49533;-34.520;150.798;2022-08-03T11:39:40;2.40;;;1.05;;
63398;SDS011;49533;-34.520;150.798;2022-08-03T11:44:58;1.30;;;1.20;;
63398;SDS011;49533;-34.520;150.798;2022-08-03T11:49:56;2.05;;;1.30;;
63398;SDS011;49533;-34.520;150.798;2022-08-03T11:52:26;2.05;;;1.35;;
63398;SDS011;49533;-34.520;150.798;2022-08-03T11:54:59;1.85;;;1.10;;
63398;SDS011;49533;-34.520;150.798;2022-08-03T11:57:30;3.13;;;1.50;;
63398;SDS011;49533;-34.520;150.798;2022-08-03T11:59:59;2.55;;;1.33;;
63398;SDS011;49533;-34.520;150.798;2022-08-03T12:02:26;2.70;;;1.45;;
63398;SDS011;49533;-34.520;150.798;2022-08-03T12:07:27;2.17;;;1.15;;
63398;SDS011;49533;-34.520;150.798;2022-08-03T12:10:11;2.90;;;1.30;;
63398;SDS011;49533;-34.520;150.798;2022-08-03T12:12:40;2.17;;;1.25;;
63398;SDS011;49533;-34.520;150.798;2022-08-03T12:15:10;2.72;;;1.17;;
63398;SDS011;49533;-34.520;150.798;2022-08-03T12:17:38;2.15;;;1.10;;
63398;SDS011;49533;-34.520;150.798;2022-08-03T12:20:06;1.73;;;1.52;;
63398;SDS011;49533;-34.520;150.798;2022-08-03T12:22:36;1.40;;;1.30;;
63398;SDS011;49533;-34.520;150.798;2022-08-03T12:25:05;2.05;;;1.30;;
63398;SDS011;49533;-34.520;150.798;2022-08-03T12:27:34;1.85;;;1.30;;
63398;SDS011;49533;-34.520;150.798;2022-08-03T12:30:02;0.80;;;0.80;;
63398;SDS011;49533;-34.520;150.798;2022-08-03T12:32:29;1.38;;;1.27;;
63398;SDS011;49533;-34.520;150.798;2022-08-03T12:34:57;1.23;;;1.13;;
63398;SDS011;49533;-34.520;150.798;2022-08-03T12:37:29;2.10;;;0.93;;
63398;SDS011;49533;-34.520;150.798;2022-08-03T12:39:58;1.83;;;1.25;;
63398;SDS011;49533;-34.520;150.798;2022-08-03T12:42:32;2.72;;;1.13;;
63398;SDS011;49533;-34.520;150.798;2022-08-03T12:45:19;2.63;;;1.13;;
63398;SDS011;49533;-34.520;150.798;2022-08-03T12:50:22;1.75;;;1.42;;
63398;SDS011;49533;-34.520;150.798;2022-08-03T12:52:58;2.08;;;0.93;;
63398;SDS011;49533;-34.520;150.798;2022-08-03T12:55:27;1.77;;;1.58;;
63398;SDS011;49533;-34.520;150.798;2022-08-03T12:58:00;2.37;;;1.33;;
63398;SDS011;49533;-34.520;150.798;2022-08-03T13:00:29;2.15;;;1.33;;
63398;SDS011;49533;-34.520;150.798;2022-08-03T13:03:00;2.25;;;1.35;;
63398;SDS011;49533;-34.520;150.798;2022-08-03T13:05:44;1.67;;;1.38;;
63398;SDS011;49533;-34.520;150.798;2022-08-03T13:08:18;1.10;;;1.00;;
63398;SDS011;49533;-34.520;150.798;2022-08-03T13:10:46;0.80;;;0.80;;
63398;SDS011;49533;-34.520;150.798;2022-08-03T13:13:14;1.95;;;1.40;;
63398;SDS011;49533;-34.520;150.798;2022-08-03T13:15:41;1.35;;;1.00;;
63398;SDS011;49533;-34.520;150.798;2022-08-03T13:18:08;2.05;;;1.55;;
63398;SDS011;49533;-34.520;150.798;2022-08-03T13:20:35;2.10;;;1.45;;
63398;SDS011;49533;-34.520;150.798;2022-08-03T13:23:02;3.38;;;0.90;;
63398;SDS011;49533;-34.520;150.798;2022-08-03T13:25:29;0.88;;;0.88;;
63398;SDS011;49533;-34.520;150.798;2022-08-03T13:27:56;1.77;;;1.27;;
63398;SDS011;49533;-34.520;150.798;2022-08-03T13:30:23;3.20;;;2.05;;
63398;SDS011;49533;-34.520;150.798;2022-08-03T13:32:50;1.35;;;1.20;;
63398;SDS011;49533;-34.520;150.798;2022-08-03T13:35:17;1.42;;;1.00;;
63398;SDS011;49533;-34.520;150.798;2022-08-03T13:37:44;1.65;;;1.35;;
63398;SDS011;49533;-34.520;150.798;2022-08-03T13:40:12;4.07;;;1.55;;
63398;SDS011;49533;-34.520;150.798;2022-08-03T13:42:39;1.02;;;1.02;;
63398;SDS011;49533;-34.520;150.798;2022-08-03T13:45:07;1.40;;;0.90;;
63398;SDS011;49533;-34.520;150.798;2022-08-03T13:47:35;1.58;;;1.10;;
63398;SDS011;49533;-34.520;150.798;2022-08-03T13:50:02;1.10;;;0.98;;
63398;SDS011;49533;-34.520;150.798;2022-08-03T13:52:31;0.88;;;0.80;;
63398;SDS011;49533;-34.520;150.798;2022-08-03T13:54:59;1.15;;;1.05;;
63398;SDS011;49533;-34.520;150.798;2022-08-03T13:57:27;1.33;;;1.00;;
63398;SDS011;49533;-34.520;150.798;2022-08-03T13:59:54;1.50;;;1.02;;
63398;SDS011;49533;-34.520;150.798;2022-08-03T14:02:21;1.75;;;1.13;;
63398;SDS011;49533;-34.520;150.798;2022-08-03T14:04:48;1.42;;;1.05;;
63398;SDS011;49533;-34.520;150.798;2022-08-03T14:07:15;2.35;;;1.20;;
63398;SDS011;49533;-34.520;150.798;2022-08-03T14:09:43;1.25;;;1.00;;
63398;SDS011;49533;-34.520;150.798;2022-08-03T14:12:10;1.30;;;1.17;;
63398;SDS011;49533;-34.520;150.798;2022-08-03T14:14:37;1.60;;;1.08;;
63398;SDS011;49533;-34.520;150.798;2022-08-03T14:17:04;1.02;;;0.93;;
63398;SDS011;49533;-34.520;150.798;2022-08-03T14:19:31;1.13;;;1.05;;
63398;SDS011;49533;-34.520;150.798;2022-08-03T14:21:58;1.35;;;1.13;;
63398;SDS011;49533;-34.520;150.798;2022-08-03T14:24:25;1.52;;;1.30;;
63398;SDS011;49533;-34.520;150.798;2022-08-03T14:26:52;2.05;;;1.05;;
63398;SDS011;49533;-34.520;150.798;2022-08-03T14:29:19;1.52;;;0.85;;
63398;SDS011;49533;-34.520;150.798;2022-08-03T14:31:46;2.83;;;1.33;;
63398;SDS011;49533;-34.520;150.798;2022-08-03T14:34:13;1.20;;;1.10;;
63398;SDS011;49533;-34.520;150.798;2022-08-03T14:36:40;4.60;;;1.13;;
63398;SDS011;49533;-34.520;150.798;2022-08-03T14:39:07;2.00;;;1.00;;
63398;SDS011;49533;-34.520;150.798;2022-08-03T14:41:34;1.20;;;1.10;;
63398;SDS011;49533;-34.520;150.798;2022-08-03T14:44:01;0.88;;;0.88;;
63398;SDS011;49533;-34.520;150.798;2022-08-03T14:46:28;1.50;;;1.30;;
63398;SDS011;49533;-34.520;150.798;2022-08-03T14:48:56;2.55;;;1.30;;
63398;SDS011;49533;-34.520;150.798;2022-08-03T14:51:23;1.52;;;1.13;;
63398;SDS011;49533;-34.520;150.798;2022-08-03T14:53:50;1.67;;;1.10;;
63398;SDS011;49533;-34.520;150.798;2022-08-03T14:56:18;2.30;;;1.27;;
63398;SDS011;49533;-34.520;150.798;2022-08-03T14:58:45;1.38;;;1.05;;
63398;SDS011;49533;-34.520;150.798;2022-08-03T15:01:12;1.02;;;0.98;;
63398;SDS011;49533;-34.520;150.798;2022-08-03T15:03:39;1.30;;;1.20;;
63398;SDS011;49533;-34.520;150.798;2022-08-03T15:06:06;1.63;;;1.10;;